createdAt,value
2022-08-22T00:00:43.716Z,3.28
2022-08-22T00:02:53.605Z,1.73
2022-08-22T00:02:54.352Z,1.60
2022-08-22T00:02:56.362Z,1.83
2022-08-22T00:03:09.333Z,2.50
2022-08-22T00:03:35.322Z,2.85
2022-08-22T00:06:17.049Z,2.65
2022-08-22T00:08:46.438Z,2.50
2022-08-22T00:11:12.819Z,2.83
2022-08-22T00:14:01.100Z,3.67
2022-08-22T00:16:28.869Z,3.30
2022-08-22T00:19:13.948Z,2.78
2022-08-22T00:21:43.400Z,3.15
2022-08-22T00:24:18.908Z,2.63
2022-08-22T00:26:51.230Z,2.75
2022-08-22T00:31:47.749Z,2.78
2022-08-22T00:34:23.362Z,2.80
2022-08-22T00:36:56.401Z,2.40
2022-08-22T00:39:31.201Z,3.10
2022-08-22T00:42:00.577Z,2.92
2022-08-22T00:44:45.994Z,2.92
2022-08-22T00:47:25.521Z,3.00
2022-08-22T00:50:01.113Z,3.20
2022-08-22T00:52:45.393Z,2.67
2022-08-22T00:55:11.805Z,3.13
2022-08-22T00:58:08.425Z,3.35
2022-08-22T01:00:41.331Z,2.85
2022-08-22T01:03:13.829Z,3.05
2022-08-22T01:08:25.028Z,3.03
2022-08-22T01:11:01.769Z,2.90
2022-08-22T01:13:34.234Z,2.78
2022-08-22T01:16:06.774Z,2.72
2022-08-22T01:21:08.610Z,3.28
2022-08-22T01:24:01.089Z,3.22
2022-08-22T01:26:30.540Z,3.17
2022-08-22T01:29:15.997Z,2.25
2022-08-22T01:31:48.376Z,2.60
2022-08-22T01:34:33.732Z,2.65
2022-08-22T01:37:18.961Z,3.40
2022-08-22T01:39:55.116Z,2.63
2022-08-22T01:42:30.056Z,2.50
2022-08-22T01:45:12.589Z,3.17
2022-08-22T01:47:43.412Z,2.28
2022-08-22T01:50:18.165Z,2.90
2022-08-22T01:52:47.875Z,2.55
2022-08-22T01:55:31.566Z,3.17
2022-08-22T01:57:59.935Z,2.50
2022-08-22T02:00:35.119Z,2.97
2022-08-22T02:03:02.117Z,3.00
2022-08-22T02:05:31.738Z,3.10
2022-08-22T02:08:03.493Z,3.30
2022-08-22T02:10:54.389Z,3.22
2022-08-22T02:13:32.452Z,3.22
2022-08-22T02:16:08.402Z,2.97
2022-08-22T02:18:53.413Z,3.17
2022-08-22T02:21:24.113Z,3.10
2022-08-22T02:23:55.938Z,3.05
2022-08-22T02:26:28.904Z,3.80
2022-08-22T02:29:01.114Z,3.08
2022-08-22T02:31:36.947Z,3.22
2022-08-22T02:34:15.320Z,2.60
2022-08-22T02:36:50.162Z,2.67
2022-08-22T02:39:22.798Z,2.63
2022-08-22T02:41:55.475Z,3.35
2022-08-22T02:44:28.341Z,3.58
2022-08-22T02:47:00.016Z,3.58
2022-08-22T02:49:27.324Z,3.80
2022-08-22T02:52:06.164Z,3.25
2022-08-22T02:54:37.931Z,3.25
2022-08-22T02:57:04.292Z,3.00
2022-08-22T02:59:33.341Z,3.95
2022-08-22T03:02:19.672Z,3.20
2022-08-22T03:04:50.962Z,3.17
2022-08-22T03:07:20.377Z,3.30
2022-08-22T03:10:05.639Z,3.10
2022-08-22T03:12:53.631Z,3.45
2022-08-22T03:15:27.015Z,3.80
2022-08-22T03:17:57.126Z,3.58
2022-08-22T03:20:32.846Z,3.45
2022-08-22T03:23:09.734Z,3.80
2022-08-22T03:25:39.664Z,4.40
2022-08-22T03:28:19.873Z,4.32
2022-08-22T03:30:57.270Z,3.95
2022-08-22T03:33:29.212Z,4.10
2022-08-22T03:36:02.211Z,3.80
2022-08-22T03:38:31.825Z,3.63
2022-08-22T03:41:17.677Z,3.90
2022-08-22T03:43:44.014Z,4.07
2022-08-22T03:46:18.580Z,3.90
2022-08-22T03:48:48.074Z,3.85
2022-08-22T03:51:26.677Z,3.95
2022-08-22T03:54:15.300Z,3.90
2022-08-22T03:56:57.546Z,3.58
2022-08-22T03:59:50.168Z,4.50
2022-08-22T04:02:43.424Z,3.83
2022-08-22T04:05:22.843Z,4.10
2022-08-22T04:08:07.606Z,4.10
2022-08-22T04:10:53.827Z,3.92
2022-08-22T04:13:48.709Z,4.35
2022-08-22T04:16:38.412Z,3.50
2022-08-22T04:19:11.072Z,3.38
2022-08-22T04:21:53.961Z,3.50
2022-08-22T04:24:34.822Z,3.97
2022-08-22T04:27:16.152Z,3.80
2022-08-22T04:29:42.608Z,4.13
2022-08-22T04:32:14.675Z,4.20
2022-08-22T04:34:43.933Z,3.95
2022-08-22T04:37:30.583Z,3.65
2022-08-22T04:39:59.617Z,3.60
2022-08-22T04:42:34.969Z,3.63
2022-08-22T04:45:04.420Z,4.25
2022-08-22T04:47:33.777Z,3.15
2022-08-22T04:50:06.477Z,3.40
2022-08-22T04:52:46.647Z,3.30
2022-08-22T04:55:28.709Z,3.63
2022-08-22T04:58:13.892Z,4.13
2022-08-22T05:00:54.236Z,3.40
2022-08-22T05:03:22.843Z,3.90
2022-08-22T05:05:50.505Z,4.20
2022-08-22T05:08:19.882Z,3.80
2022-08-22T05:10:49.331Z,3.72
2022-08-22T05:13:21.684Z,3.63
2022-08-22T05:15:49.933Z,4.35
2022-08-22T05:18:22.714Z,4.18
2022-08-22T05:20:52.441Z,4.30
2022-08-22T05:23:30.146Z,3.55
2022-08-22T05:26:00.403Z,4.32
2022-08-22T05:28:39.009Z,3.95
2022-08-22T05:31:07.949Z,3.97
2022-08-22T05:33:38.490Z,4.60
2022-08-22T05:36:11.829Z,4.35
2022-08-22T05:38:41.592Z,4.22
2022-08-22T05:41:10.022Z,3.97
2022-08-22T05:43:41.845Z,4.18
2022-08-22T05:46:13.527Z,4.40
2022-08-22T05:48:42.412Z,5.33
2022-08-22T05:51:22.040Z,4.13
2022-08-22T05:53:51.080Z,4.10
2022-08-22T05:56:26.286Z,4.63
2022-08-22T05:59:00.038Z,4.57
2022-08-22T06:01:35.556Z,4.20
2022-08-22T06:04:14.047Z,4.65
2022-08-22T06:06:43.498Z,4.55
2022-08-22T06:09:12.797Z,3.95
2022-08-22T06:11:44.829Z,4.13
2022-08-22T06:14:37.359Z,4.80
2022-08-22T06:17:11.553Z,4.35
2022-08-22T06:19:40.300Z,4.38
2022-08-22T06:22:07.274Z,5.30
2022-08-22T06:24:36.424Z,4.93
2022-08-22T06:27:05.596Z,4.53
2022-08-22T06:29:36.976Z,4.50
2022-08-22T06:32:10.320Z,4.78
2022-08-22T06:34:39.212Z,4.30
2022-08-22T06:37:07.219Z,4.53
2022-08-22T06:39:38.310Z,4.40
2022-08-22T06:42:17.021Z,4.03
2022-08-22T06:44:48.820Z,3.92
2022-08-22T06:47:20.717Z,4.60
2022-08-22T06:49:47.221Z,4.57
2022-08-22T06:52:22.383Z,4.75
2022-08-22T06:54:52.299Z,4.25
2022-08-22T06:57:35.917Z,4.45
2022-08-22T07:00:06.707Z,4.82
2022-08-22T07:02:36.145Z,3.88
2022-08-22T07:05:02.798Z,4.72
2022-08-22T07:07:29.213Z,3.88
2022-08-22T07:09:57.397Z,4.75
2022-08-22T07:12:31.231Z,5.30
2022-08-22T07:14:58.913Z,4.60
2022-08-22T07:17:27.029Z,5.30
2022-08-22T07:20:10.712Z,4.10
2022-08-22T07:22:37.938Z,4.80
2022-08-22T07:25:14.736Z,5.22
2022-08-22T07:27:44.154Z,5.72
2022-08-22T07:30:16.510Z,4.95
2022-08-22T07:33:23.691Z,4.28
2022-08-22T07:35:53.423Z,4.53
2022-08-22T07:38:33.071Z,4.82
2022-08-22T07:41:11.405Z,4.68
2022-08-22T07:43:38.040Z,4.38
2022-08-22T07:46:04.464Z,4.32
2022-08-22T07:48:59.513Z,4.18
2022-08-22T07:51:33.592Z,5.05
2022-08-22T07:54:02.310Z,4.47
2022-08-22T07:56:31.120Z,3.97
2022-08-22T07:59:09.428Z,5.28
2022-08-22T08:01:43.615Z,4.07
2022-08-22T08:04:13.056Z,4.43
2022-08-22T08:06:39.768Z,4.80
2022-08-22T08:09:09.072Z,4.35
2022-08-22T08:11:39.964Z,4.18
2022-08-22T08:14:07.901Z,4.60
2022-08-22T08:16:42.424Z,3.95
2022-08-22T08:19:10.724Z,3.60
2022-08-22T08:21:38.809Z,4.70
2022-08-22T08:24:11.990Z,5.00
2022-08-22T08:27:02.748Z,4.55
2022-08-22T08:29:29.931Z,4.28
2022-08-22T08:31:56.728Z,3.67
2022-08-22T08:34:24.421Z,4.20
2022-08-22T08:36:53.072Z,5.00
2022-08-22T08:39:19.415Z,3.75
2022-08-22T08:42:06.058Z,4.00
2022-08-22T08:44:51.129Z,4.35
2022-08-22T08:47:35.953Z,4.28
2022-08-22T08:50:09.487Z,4.13
2022-08-22T08:52:52.859Z,3.55
2022-08-22T08:55:38.521Z,4.38
2022-08-22T08:58:23.987Z,3.60
2022-08-22T09:00:57.090Z,3.13
2022-08-22T09:03:41.047Z,3.28
2022-08-22T09:06:42.528Z,3.30
2022-08-22T09:09:28.692Z,2.88
2022-08-22T09:12:08.498Z,3.00
2022-08-22T09:14:47.305Z,3.13
2022-08-22T09:17:16.565Z,2.90
2022-08-22T09:20:17.934Z,2.65
2022-08-22T09:23:10.110Z,2.63
2022-08-22T09:25:46.312Z,2.30
2022-08-22T09:28:22.887Z,2.83
2022-08-22T09:31:16.769Z,2.55
2022-08-22T09:33:57.293Z,2.40
2022-08-22T09:36:44.308Z,1.80
2022-08-22T09:39:10.658Z,3.00
2022-08-22T09:41:55.922Z,2.92
2022-08-22T09:44:31.149Z,2.17
2022-08-22T09:47:03.381Z,2.65
2022-08-22T09:49:38.550Z,2.45
2022-08-22T09:52:15.556Z,2.92
2022-08-22T09:55:03.160Z,2.28
2022-08-22T09:57:40.256Z,2.67
2022-08-22T10:00:22.392Z,2.42
2022-08-22T10:02:52.069Z,2.90
2022-08-22T10:05:39.475Z,2.83
2022-08-22T10:08:07.954Z,2.95
2022-08-22T10:10:40.677Z,2.35
2022-08-22T10:13:18.288Z,2.53
2022-08-22T10:16:01.901Z,2.40
2022-08-22T10:18:52.872Z,2.28
2022-08-22T10:21:21.097Z,2.10
2022-08-22T10:23:55.962Z,2.35
2022-08-22T10:26:38.655Z,1.98
2022-08-22T10:29:24.108Z,2.60
2022-08-22T10:31:58.665Z,2.55
2022-08-22T10:34:30.461Z,2.30
2022-08-22T10:37:18.451Z,2.20
2022-08-22T10:39:54.855Z,2.35
2022-08-22T10:42:39.751Z,2.05
2022-08-22T10:45:14.676Z,2.40
2022-08-22T10:47:53.222Z,2.22
2022-08-22T10:50:32.877Z,2.28
2022-08-22T10:53:28.961Z,2.30
2022-08-22T10:56:28.597Z,2.58
2022-08-22T10:59:01.376Z,2.47
2022-08-22T11:01:41.852Z,2.38
2022-08-22T11:04:28.324Z,2.17
2022-08-22T11:07:18.196Z,1.75
2022-08-22T11:09:54.334Z,2.28
2022-08-22T11:12:35.077Z,2.20
2022-08-22T11:15:34.445Z,2.08
2022-08-22T11:18:01.406Z,2.15
2022-08-22T11:20:42.424Z,2.80
2022-08-22T11:23:28.380Z,2.17
2022-08-22T11:26:05.037Z,2.08
2022-08-22T11:28:34.862Z,1.98
2022-08-22T11:31:17.061Z,2.28
2022-08-22T11:34:03.317Z,2.58
2022-08-22T11:36:46.446Z,2.10
2022-08-22T11:39:19.085Z,2.40
2022-08-22T11:41:52.951Z,2.38
2022-08-22T11:44:22.006Z,2.40
2022-08-22T11:46:55.062Z,2.00
2022-08-22T11:49:40.297Z,2.17
2022-08-22T11:52:15.526Z,2.00
2022-08-22T11:55:02.705Z,2.10
2022-08-22T11:57:41.749Z,1.90
2022-08-22T12:02:37.781Z,2.42
2022-08-22T12:05:09.681Z,2.45
2022-08-22T12:07:49.068Z,1.92
2022-08-22T12:10:24.586Z,2.38
2022-08-22T12:12:55.248Z,2.17
2022-08-22T12:15:24.552Z,2.10
2022-08-22T12:17:59.939Z,1.33
2022-08-22T12:20:28.397Z,2.30
2022-08-22T12:23:10.092Z,1.80
2022-08-22T12:25:44.524Z,1.90
2022-08-22T12:28:32.831Z,2.15
2022-08-22T12:31:07.533Z,1.73
2022-08-22T12:33:34.713Z,1.83
2022-08-22T12:36:06.404Z,2.53
2022-08-22T12:38:51.364Z,2.15
2022-08-22T12:41:40.161Z,1.95
2022-08-22T12:44:25.479Z,2.10
2022-08-22T12:47:10.208Z,1.92
2022-08-22T12:49:44.910Z,1.80
2022-08-22T12:52:34.697Z,2.10
2022-08-22T12:55:19.805Z,2.05
2022-08-22T12:57:53.978Z,1.45
2022-08-22T13:00:34.359Z,2.00
2022-08-22T13:03:04.577Z,2.00
2022-08-22T13:05:40.663Z,1.90
2022-08-22T13:08:28.999Z,1.85
2022-08-22T13:11:23.296Z,1.90
2022-08-22T13:13:56.504Z,1.70
2022-08-22T13:16:24.579Z,1.80
2022-08-22T13:18:56.719Z,2.58
2022-08-22T13:21:26.690Z,1.63
2022-08-22T13:23:59.474Z,1.63
2022-08-22T13:26:33.989Z,1.90
2022-08-22T13:32:00.172Z,2.10
2022-08-22T13:34:40.105Z,2.10
2022-08-22T13:37:11.257Z,1.80
2022-08-22T13:39:41.419Z,1.65
2022-08-22T13:42:15.889Z,1.50
2022-08-22T13:44:55.898Z,2.28
2022-08-22T13:47:25.492Z,2.08
2022-08-22T13:49:53.100Z,1.92
2022-08-22T13:52:29.139Z,2.03
2022-08-22T13:55:02.566Z,1.65
2022-08-22T13:57:28.964Z,2.20
2022-08-22T14:00:06.307Z,1.90
2022-08-22T14:02:52.045Z,2.00
2022-08-22T14:05:25.097Z,1.73
2022-08-22T14:08:13.053Z,1.75
2022-08-22T14:10:44.204Z,2.10
2022-08-22T14:13:11.882Z,2.00
2022-08-22T14:15:45.722Z,2.10
2022-08-22T14:18:20.068Z,2.50
2022-08-22T14:20:47.584Z,1.92
2022-08-22T14:23:17.862Z,1.95
2022-08-22T14:25:44.910Z,2.33
2022-08-22T14:28:27.360Z,1.83
2022-08-22T14:31:01.077Z,1.63
2022-08-22T14:33:37.035Z,2.15
2022-08-22T14:36:13.252Z,2.03
2022-08-22T14:38:46.218Z,1.90
2022-08-22T14:41:23.509Z,2.40
2022-08-22T14:43:56.895Z,2.00
2022-08-22T14:46:36.573Z,1.90
2022-08-22T14:49:10.682Z,1.70
2022-08-22T14:51:40.448Z,2.30
2022-08-22T14:54:14.085Z,2.05
2022-08-22T14:56:48.772Z,2.40
2022-08-22T14:59:34.630Z,2.13
2022-08-22T15:02:03.161Z,1.65
2022-08-22T15:04:35.166Z,1.98
2022-08-22T15:07:04.829Z,2.17
2022-08-22T15:09:33.907Z,2.38
2022-08-22T15:12:01.740Z,2.40
2022-08-22T15:14:44.201Z,2.13
2022-08-22T15:17:51.255Z,1.95
2022-08-22T15:20:22.766Z,1.98
2022-08-22T15:22:55.440Z,2.08
2022-08-22T15:25:25.402Z,2.17
2022-08-22T15:27:53.916Z,2.03
2022-08-22T15:30:53.994Z,2.08
2022-08-22T15:33:25.588Z,1.85
2022-08-22T15:35:53.753Z,2.45
2022-08-22T15:38:26.314Z,1.77
2022-08-22T15:40:54.728Z,1.80
2022-08-22T15:43:24.240Z,2.28
2022-08-22T15:45:52.280Z,2.05
2022-08-22T15:48:33.991Z,1.98
2022-08-22T15:51:02.659Z,2.53
2022-08-22T15:53:52.339Z,2.20
2022-08-22T15:56:22.210Z,1.70
2022-08-22T15:58:51.813Z,1.98
2022-08-22T16:01:23.556Z,2.10
2022-08-22T16:03:59.916Z,2.25
2022-08-22T16:06:42.324Z,2.03
2022-08-22T16:09:29.822Z,1.70
2022-08-22T16:11:57.792Z,2.10
2022-08-22T16:14:24.208Z,2.10
2022-08-22T16:16:51.121Z,1.80
2022-08-22T16:19:19.992Z,1.85
2022-08-22T16:21:47.629Z,1.83
2022-08-22T16:24:14.014Z,2.08
2022-08-22T16:26:41.334Z,1.70
2022-08-22T16:29:13.626Z,1.80
2022-08-22T16:31:44.301Z,2.17
2022-08-22T16:34:16.886Z,2.17
2022-08-22T16:37:02.171Z,1.60
2022-08-22T16:39:43.075Z,1.58
2022-08-22T16:42:12.579Z,2.05
2022-08-22T16:44:42.063Z,1.98
2022-08-22T16:47:11.268Z,2.00
2022-08-22T16:49:50.834Z,1.60
2022-08-22T16:52:20.280Z,1.95
2022-08-22T16:54:49.649Z,1.90
2022-08-22T16:57:20.436Z,1.98
2022-08-22T16:59:59.148Z,1.80
2022-08-22T17:02:36.048Z,1.95
2022-08-22T17:05:08.733Z,2.22
2022-08-22T17:07:48.145Z,2.22
2022-08-22T17:10:35.648Z,2.00
2022-08-22T17:13:06.226Z,1.80
2022-08-22T17:15:45.557Z,2.00
2022-08-22T17:18:15.248Z,1.60
2022-08-22T17:21:00.357Z,1.90
2022-08-22T17:23:29.872Z,2.20
2022-08-22T17:26:28.967Z,2.25
2022-08-22T17:28:58.458Z,2.38
2022-08-22T17:31:27.964Z,2.03
2022-08-22T17:34:26.216Z,1.77
2022-08-22T17:37:01.366Z,1.52
2022-08-22T17:39:29.132Z,2.05
2022-08-22T17:42:23.201Z,2.22
2022-08-22T17:44:56.254Z,1.92
2022-08-22T17:47:39.778Z,2.00
2022-08-22T17:50:12.669Z,2.20
2022-08-22T17:52:51.388Z,1.90
2022-08-22T17:55:19.705Z,1.95
2022-08-22T17:57:53.185Z,1.40
2022-08-22T18:00:30.421Z,1.77
2022-08-22T18:03:03.014Z,2.40
2022-08-22T18:05:32.930Z,2.35
2022-08-22T18:08:37.568Z,1.63
2022-08-22T18:11:08.878Z,2.15
2022-08-22T18:13:45.699Z,1.90
2022-08-22T18:16:23.175Z,1.90
2022-08-22T18:18:56.024Z,1.70
2022-08-22T18:21:26.878Z,2.25
2022-08-22T18:24:01.217Z,2.20
2022-08-22T18:26:38.193Z,1.92
2022-08-22T18:29:13.190Z,2.15
2022-08-22T18:32:03.545Z,2.60
2022-08-22T18:34:33.922Z,2.33
2022-08-22T18:37:43.377Z,2.03
2022-08-22T18:40:26.986Z,2.20
2022-08-22T18:42:59.057Z,2.00
2022-08-22T18:45:44.633Z,2.25
2022-08-22T18:48:22.360Z,1.98
2022-08-22T18:50:49.142Z,2.40
2022-08-22T18:53:36.872Z,2.17
2022-08-22T18:56:14.216Z,2.35
2022-08-22T18:58:45.405Z,2.17
2022-08-22T19:01:20.843Z,2.20
2022-08-22T19:04:05.691Z,3.10
2022-08-22T19:06:56.490Z,1.80
2022-08-22T19:09:41.268Z,1.95
2022-08-22T19:12:26.633Z,2.30
2022-08-22T19:14:59.589Z,2.58
2022-08-22T19:17:33.198Z,2.38
2022-08-22T19:20:37.377Z,2.13
2022-08-22T19:23:27.822Z,2.10
2022-08-22T19:26:13.057Z,1.75
2022-08-22T19:28:39.477Z,2.42
2022-08-22T19:31:23.196Z,2.55
2022-08-22T19:34:09.900Z,1.85
2022-08-22T19:36:36.287Z,1.95
2022-08-22T19:39:09.239Z,2.03
2022-08-22T19:41:41.305Z,2.00
2022-08-22T19:44:19.955Z,2.28
2022-08-22T19:46:48.305Z,1.83
2022-08-22T19:49:25.107Z,2.40
2022-08-22T19:52:05.150Z,1.90
2022-08-22T19:54:33.587Z,2.10
2022-08-22T19:57:10.147Z,2.25
2022-08-22T20:00:00.031Z,2.05
2022-08-22T20:02:45.547Z,2.35
2022-08-22T20:05:22.168Z,2.35
2022-08-22T20:07:58.365Z,1.73
2022-08-22T20:10:39.992Z,2.40
2022-08-22T20:13:18.285Z,1.83
2022-08-22T20:16:06.295Z,2.10
2022-08-22T20:18:55.575Z,2.22
2022-08-22T20:21:41.077Z,2.33
2022-08-22T20:24:11.638Z,2.30
2022-08-22T20:26:52.115Z,2.90
2022-08-22T20:29:30.353Z,2.15
2022-08-22T20:31:58.979Z,2.53
2022-08-22T20:34:27.757Z,2.38
2022-08-22T20:37:09.882Z,2.25
2022-08-22T20:39:58.824Z,2.65
2022-08-22T20:42:26.566Z,2.25
2022-08-22T20:44:53.946Z,2.10
2022-08-22T20:47:24.985Z,2.53
2022-08-22T20:49:54.389Z,2.50
2022-08-22T20:52:29.979Z,2.47
2022-08-22T20:55:02.494Z,2.65
2022-08-22T20:57:29.048Z,2.30
2022-08-22T20:59:58.066Z,2.70
2022-08-22T21:02:27.319Z,2.85
2022-08-22T21:04:57.038Z,2.60
2022-08-22T21:07:25.674Z,2.53
2022-08-22T21:10:22.597Z,2.60
2022-08-22T21:13:03.705Z,3.13
2022-08-22T21:15:31.696Z,2.35
2022-08-22T21:17:58.592Z,2.60
2022-08-22T21:20:29.729Z,3.05
2022-08-22T21:23:00.035Z,2.70
2022-08-22T21:25:26.475Z,2.85
2022-08-22T21:27:54.969Z,2.58
2022-08-22T21:30:24.114Z,3.15
2022-08-22T21:32:55.549Z,2.38
2022-08-22T21:35:25.121Z,2.83
2022-08-22T21:37:51.950Z,3.28
2022-08-22T21:40:20.200Z,3.13
2022-08-22T21:42:58.857Z,3.00
2022-08-22T21:45:27.345Z,2.78
2022-08-22T21:47:54.176Z,2.80
2022-08-22T21:50:20.624Z,2.75
2022-08-22T21:52:56.255Z,2.88
2022-08-22T21:55:25.350Z,3.15
2022-08-22T21:58:02.029Z,2.67
2022-08-22T22:00:49.612Z,3.10
2022-08-22T22:03:17.400Z,2.67
2022-08-22T22:05:44.233Z,3.08
2022-08-22T22:08:13.644Z,3.28
2022-08-22T22:10:40.970Z,2.90
2022-08-22T22:13:07.970Z,3.58
2022-08-22T22:15:40.946Z,3.47
2022-08-22T22:18:07.444Z,3.28
2022-08-22T22:20:34.021Z,3.42
2022-08-22T22:23:00.456Z,3.45
2022-08-22T22:25:40.315Z,2.90
2022-08-22T22:28:11.493Z,2.97
2022-08-22T22:30:37.949Z,3.50
2022-08-22T22:33:04.568Z,2.97
2022-08-22T22:35:31.449Z,2.88
2022-08-22T22:37:58.027Z,3.20
2022-08-22T22:40:24.591Z,3.38
2022-08-22T22:42:51.204Z,3.08
2022-08-22T22:45:17.717Z,3.38
2022-08-22T22:47:44.189Z,3.35
2022-08-22T22:50:11.602Z,2.85
2022-08-22T22:52:38.438Z,3.22
2022-08-22T22:55:07.597Z,3.22
2022-08-22T22:57:42.400Z,3.20
2022-08-22T23:00:10.603Z,3.13
2022-08-22T23:02:37.105Z,3.40
2022-08-22T23:05:04.072Z,3.20
2022-08-22T23:07:30.517Z,3.38
2022-08-22T23:10:02.325Z,4.00
2022-08-22T23:12:28.987Z,3.85
2022-08-22T23:14:55.442Z,3.70
2022-08-22T23:17:21.917Z,3.17
2022-08-22T23:19:49.974Z,3.00
2022-08-22T23:22:16.432Z,3.35
2022-08-22T23:24:42.953Z,3.28
2022-08-22T23:27:09.913Z,3.25
2022-08-22T23:29:38.605Z,3.70
2022-08-22T23:32:05.456Z,3.75
2022-08-22T23:34:35.363Z,3.47
2022-08-22T23:37:03.294Z,4.88
2022-08-22T23:39:34.431Z,3.42
2022-08-22T23:42:01.277Z,3.50
2022-08-22T23:44:31.697Z,3.80
2022-08-22T23:46:58.917Z,3.80
2022-08-22T23:49:25.835Z,3.97
2022-08-22T23:51:52.427Z,3.40
2022-08-22T23:54:19.390Z,3.22
2022-08-22T23:56:50.583Z,3.65
2022-08-22T23:59:18.658Z,3.75
